M I D A S
Marine Information and Data Acquisition System
Tripno 474 of the Zeeleeuw from 2002-04-25 11:45:00 to 2002-04-25 15:45:00
Back to CruiseResearch ActivitiesStationsMapUnderway DataData graphs

EquipmentUnitsComment
TimeDGPSUTC
LatitudeDGPSDM.mWGS84
LongitudeDGPSDM.mWGS84
TemperatureSBE03/SBE38deg celciusITS90
ConductivitySBE21S/mITS90
SalinitySBE21 Practical Salinity Units
ChlorophylAChelsea fluorimeterg/lCalibrated in Aceton
Missing or incorrect values are displayed as -999
Sea surface data collected by the RV Zeeleeuw from 2002-04-25 11:45:00 to 2002-04-25 15:45:00
                                                                                    Next 1000 lines
Time Latitude Longitude Temperature Conductivity Salinity ChlorophylA
2002-04-25 11:45:11 51°13.686 2°55.906 12.174041 3.062099 25.593358  
2002-04-25 11:45:16 51°13.686 2°55.907 12.173088 3.067105 25.64593  
2002-04-25 11:45:20 51°13.685 2°55.907 12.17209 3.07141 25.6878  
2002-04-25 11:45:26 51°13.685 2°55.906 12.1715 3.074714 25.720975  
2002-04-25 11:45:30 51°13.685 2°55.906 12.170411 3.076116 25.735522  
2002-04-25 11:45:35 51°13.685 2°55.905 12.166644 3.077117 25.745838  
2002-04-25 11:45:41 51°13.684 2°55.903 12.166644 3.077117 25.745838  
2002-04-25 11:45:47 51°13.685 2°55.9 12.158792 3.078619 25.760244  
2002-04-25 11:45:51 51°13.686 2°55.897 12.149714 3.081522 25.788137  
2002-04-25 11:45:56 51°13.686 2°55.893 12.123018 3.084025 25.812335  
2002-04-25 11:46:01 51°13.687 2°55.889 12.098036 3.085828 25.830061  
2002-04-25 11:46:07 51°13.687 2°55.883 12.081225 3.088531 25.855582  
2002-04-25 11:46:12 51°13.687 2°55.878 12.081225 3.088531 25.855582  
2002-04-25 11:46:17 51°13.687 2°55.872 12.080089 3.090433 25.873702  
2002-04-25 11:46:22 51°13.687 2°55.865 12.075 3.093937 25.90825  
2002-04-25 11:46:27 51°13.687 2°55.858 12.073318 3.101046 25.976145  
2002-04-25 11:46:32 51°13.688 2°55.851 12.073546 3.110558 26.069561  
2002-04-25 11:46:37 51°13.689 2°55.844 12.070137 3.128881 26.246859  
2002-04-25 11:46:42 51°13.689 2°55.837 12.070137 3.128881 26.246859  
2002-04-25 11:46:47 51°13.689 2°55.83 12.066683 3.146104 26.419135  
2002-04-25 11:46:52 51°13.689 2°55.823 12.078726 3.162425 26.583336  
2002-04-25 11:46:57 51°13.689 2°55.816 12.083634 3.169635 26.657531  
2002-04-25 11:47:02 51°13.69 2°55.809 12.080816 3.175243 26.712994  
2002-04-25 11:47:07 51°13.69 2°55.803 12.083543 3.18035 26.764385  
2002-04-25 11:47:12 51°13.69 2°55.796 12.083543 3.18035 26.764385  
2002-04-25 11:47:17 51°13.691 2°55.79 12.094402 3.184656 26.80779  
2002-04-25 11:47:22 51°13.69 2°55.784 12.164193 3.189763 26.855872  
2002-04-25 11:47:26 51°13.69 2°55.779 12.197587 3.192566 26.880848  
2002-04-25 11:47:31 51°13.69 2°55.774 12.202078 3.190564 26.862208  
2002-04-25 11:47:36 51°13.69 2°55.768 12.197134 3.18806 26.837793  
2002-04-25 11:47:41 51°13.69 2°55.763 12.197134 3.18806 26.837793  
2002-04-25 11:47:46 51°13.69 2°55.758 12.182526 3.186959 26.826984  
2002-04-25 11:47:51 51°13.691 2°55.754 12.205842 3.185056 26.80649  
2002-04-25 11:47:56 51°13.691 2°55.752 12.166553 3.166431 26.626088  
2002-04-25 11:48:01 51°13.691 2°55.751 12.213507 3.126178 26.230538  
2002-04-25 11:48:06 51°13.692 2°55.753 12.372721 3.091134 25.888787  
2002-04-25 11:48:11 51°13.693 2°55.757 12.447418 3.07972 25.776307  
2002-04-25 11:48:16 51°13.695 2°55.761 12.447418 3.07972 25.776307  
2002-04-25 11:48:21 51°13.697 2°55.764 12.602511 3.073313 25.710168  
2002-04-25 11:48:26 51°13.699 2°55.767 12.653528 3.067606 25.651615  
2002-04-25 11:48:31 51°13.701 2°55.77 12.623968 3.070609 25.678806  
2002-04-25 11:48:36 51°13.702 2°55.772 12.574823 3.072111 25.693203  
2002-04-25 11:48:41 51°13.703 2°55.773 12.574823 3.072111 25.693203  
2002-04-25 11:48:46 51°13.703 2°55.774 12.509029 3.029963 25.291866  
2002-04-25 11:48:51 51°13.703 2°55.773 12.465762 2.963793 24.649644  
2002-04-25 11:48:56 51°13.702 2°55.773 12.454286 2.864204 23.675358  
2002-04-25 11:49:01 51°13.7 2°55.772 12.439554 2.747324 22.576149  
2002-04-25 11:49:07 51°13.698 2°55.77 12.417721 2.67719 21.892434  
2002-04-25 11:49:12 51°13.696 2°55.768 12.417721 2.67719 21.892434  
2002-04-25 11:49:17 51°13.694 2°55.766 12.33172 2.667486 21.787802  
2002-04-25 11:49:22 51°13.692 2°55.763 12.274293 2.700099 22.082097  
2002-04-25 11:49:27 51°13.691 2°55.761 12.242253 2.739119 22.445627  
2002-04-25 11:49:32 51°13.689 2°55.76 12.232098 2.781144 22.842055  
2002-04-25 11:49:37 51°13.689 2°55.759 12.243341 2.801957 23.042061  
2002-04-25 11:49:42 51°13.689 2°55.759 12.243341 2.801957 23.042061  
2002-04-25 11:49:47 51°13.691 2°55.76 12.280455 2.816067 23.184098  
2002-04-25 11:49:51 51°13.693 2°55.761 12.250366 2.854596 23.549039  
2002-04-25 11:49:57 51°13.698 2°55.761 12.2481 2.908441 24.058579  
2002-04-25 11:50:02 51°13.703 2°55.761 12.427802 2.961991 24.577645  
2002-04-25 11:50:07 51°13.708 2°55.758 12.443938 3.000831 24.962651  
2002-04-25 11:50:11 51°13.713 2°55.755 12.443938 3.000831 24.962651  
2002-04-25 11:50:16 51°13.719 2°55.75 12.464091 3.016848 25.125774  
2002-04-25 11:50:21 51°13.724 2°55.744 12.356115 3.011943 25.086946  
2002-04-25 11:50:26 51°13.73 2°55.738 12.266319 3.005035 25.023493  
2002-04-25 11:50:31 51°13.736 2°55.731 12.268584 3.013244 25.101502  
2002-04-25 11:50:36 51°13.742 2°55.725 12.339234 2.993423 24.906034  
2002-04-25 11:50:41 51°13.748 2°55.718 12.339234 2.993423 24.906034  
2002-04-25 11:50:46 51°13.754 2°55.71 12.413697 2.913446 24.142542  
2002-04-25 11:50:52 51°13.761 2°55.7 12.468518 2.876414 23.781131  
2002-04-25 11:50:56 51°13.766 2°55.693 12.51088 2.877515 23.785265  
2002-04-25 11:51:01 51°13.773 2°55.684 12.551049 2.919551 24.180308  
2002-04-25 11:51:06 51°13.779 2°55.676 12.619055 2.975204 24.712335  
2002-04-25 11:51:11 51°13.786 2°55.667 12.619055 2.975204 24.712335  
2002-04-25 11:51:16 51°13.793 2°55.658 12.574462 2.982211 24.785742  
2002-04-25 11:51:21 51°13.8 2°55.65 12.556463 2.936367 24.356461  
2002-04-25 11:51:26 51°13.808 2°55.643 12.520676 2.869508 23.728545  
2002-04-25 11:51:31 51°13.815 2°55.637 12.543243 2.813866 23.193277  
2002-04-25 11:51:36 51°13.824 2°55.631 12.545499 2.771738 22.788003  
2002-04-25 11:51:41 51°13.832 2°55.625 12.545499 2.771738 22.788003  
2002-04-25 11:51:46 51°13.84 2°55.619 12.556869 2.728114 22.36393  
2002-04-25 11:51:51 51°13.849 2°55.612 12.486722 2.694897 22.045742  
2002-04-25 11:51:56 51°13.857 2°55.606 12.381316 2.7014 22.097871  
2002-04-25 11:52:01 51°13.866 2°55.6 12.320401 2.730414 22.359857  
2002-04-25 11:52:06 51°13.875 2°55.595 12.298801 2.75853 22.617836  
2002-04-25 11:52:11 51°13.884 2°55.589 12.298801 2.75853 22.617836  
2002-04-25 11:52:16 51°13.892 2°55.582 12.279096 2.783345 22.844573  
2002-04-25 11:52:21 51°13.901 2°55.576 12.278779 2.788548 22.890155  
2002-04-25 11:52:26 51°13.91 2°55.57 12.304145 2.803058 23.021718  
2002-04-25 11:52:31 51°13.919 2°55.564 12.295449 2.855796 23.515381  
2002-04-25 11:52:36 51°13.928 2°55.559 12.362405 2.90824 24.017623  
2002-04-25 11:52:41 51°13.937 2°55.553 12.362405 2.90824 24.017623  
2002-04-25 11:52:46 51°13.946 2°55.547 12.432865 2.960589 24.533911  
2002-04-25 11:52:50 51°13.954 2°55.542 12.385749 3.002532 24.944207  
2002-04-25 11:52:56 51°13.965 2°55.535 12.389684 3.026758 25.185041  
2002-04-25 11:53:01 51°13.974 2°55.528 12.40393 3.039172 25.309497  
2002-04-25 11:53:06 51°13.983 2°55.522 12.380321 3.041074 25.328024  
2002-04-25 11:53:11 51°13.992 2°55.516 12.380321 3.041074 25.328024  
2002-04-25 11:53:16 51°14 2°55.51 12.46644 3.040974 25.325532  
2002-04-25 11:53:21 51°14.009 2°55.504 12.509796 3.023555 25.148356  
2002-04-25 11:53:26 51°14.018 2°55.497 12.440639 3.007037 24.97878  
2002-04-25 11:53:31 51°14.027 2°55.49 12.492322 3.013644 25.032088  
2002-04-25 11:53:36 51°14.036 2°55.484 12.440368 3.014945 25.038843  
2002-04-25 11:53:41 51°14.046 2°55.477 12.440368 3.014945 25.038843  
2002-04-25 11:53:46 51°14.055 2°55.47 12.416138 3.014645 25.034025  
2002-04-25 11:53:51 51°14.064 2°55.463 12.406055 3.011341 24.997576  
2002-04-25 11:53:56 51°14.073 2°55.457 12.41121 2.980108 24.695498  
2002-04-25 11:54:01 51°14.082 2°55.45 12.380412 2.968496 24.575244  
2002-04-25 11:54:06 51°14.091 2°55.444 12.342629 2.974302 24.626212  
2002-04-25 11:54:11 51°14.101 2°55.438 12.342629 2.974302 24.626212  
2002-04-25 11:54:16 51°14.11 2°55.431 12.341769 2.973201 24.616668  
2002-04-25 11:54:21 51°14.119 2°55.424 12.358333 2.978106 24.665004  
2002-04-25 11:54:26 51°14.128 2°55.418 12.351816 2.986715 24.751284  
2002-04-25 11:54:31 51°14.137 2°55.412 12.346657 2.990619 24.791562  
2002-04-25 11:54:36 51°14.146 2°55.405 12.28349 2.990419 24.796377  
2002-04-25 11:54:41 51°14.155 2°55.398 12.28349 2.990419 24.796377  
2002-04-25 11:54:46 51°14.163 2°55.391 12.289606 3.001831 24.91103  
2002-04-25 11:54:50 51°14.171 2°55.386 12.286979 3.011842 25.015062  
2002-04-25 11:54:55 51°14.179 2°55.378 12.28639 3.014845 25.0493  
2002-04-25 11:55:01 51°14.189 2°55.368 12.33353 3.012442 25.031417  
2002-04-25 11:55:06 51°14.197 2°55.36 12.318953 3.010641 25.015935  
2002-04-25 11:55:11 51°14.205 2°55.351 12.334481 3.025757 25.161805  
2002-04-25 11:55:16 51°14.213 2°55.341 12.334481 3.025757 25.161805  
2002-04-25 11:55:21 51°14.221 2°55.332 12.467208 3.041575 25.320053  
2002-04-25 11:55:26 51°14.228 2°55.321 12.622661 3.047482 25.384815  
2002-04-25 11:55:31 51°14.236 2°55.31 12.70095 3.050685 25.420049  
2002-04-25 11:55:35 51°14.242 2°55.301 12.820457 3.050585 25.422285  
2002-04-25 11:55:41 51°14.251 2°55.286 12.812637 3.044979 25.369683  
2002-04-25 11:55:46 51°14.259 2°55.274 12.812637 3.044979 25.369683  
2002-04-25 11:55:51 51°14.266 2°55.261 12.791645 3.035668 25.278348  
2002-04-25 11:55:56 51°14.274 2°55.248 12.769972 3.020351 25.124157  
2002-04-25 11:56:01 51°14.281 2°55.235 12.710583 2.976605 24.67875  
2002-04-25 11:56:06 51°14.289 2°55.221 12.617613 2.917248 24.088692  
2002-04-25 11:56:11 51°14.296 2°55.208 12.617613 2.917248 24.088692  
2002-04-25 11:56:16 51°14.304 2°55.193 12.530742 2.863802 23.551675  
2002-04-25 11:56:21 51°14.31 2°55.179 12.455371 2.82187 23.120136  
2002-04-25 11:56:26 51°14.317 2°55.164 12.394976 2.807859 22.958605  
2002-04-25 11:56:31 51°14.324 2°55.149 12.331539 2.805858 22.923272  
2002-04-25 11:56:36 51°14.331 2°55.134 12.288338 2.812262 22.97992  
2002-04-25 11:56:41 51°14.337 2°55.118 12.288338 2.812262 22.97992  
2002-04-25 11:56:46 51°14.344 2°55.103 12.224617 2.843885 23.281138  
2002-04-25 11:56:51 51°14.35 2°55.087 12.177172 2.891423 23.73138  
2002-04-25 11:56:56 51°14.357 2°55.072 12.137003 2.929157 24.115728  
2002-04-25 11:57:01 51°14.363 2°55.056 12.113844 2.980608 24.626481  
2002-04-25 11:57:06 51°14.37 2°55.041 12.106349 3.031862 25.135796  
2002-04-25 11:57:12 51°14.378 2°55.023 12.106349 3.031862 25.135796  
2002-04-25 11:57:16 51°14.384 2°55.01 12.105123 3.071008 25.534644  
2002-04-25 11:57:21 51°14.392 2°54.994 12.10326 3.108654 25.912508  
2002-04-25 11:57:26 51°14.4 2°54.978 12.126787 3.158318 26.412729  
2002-04-25 11:57:31 51°14.408 2°54.96 12.111664 3.199875 26.823178  
2002-04-25 11:57:36 51°14.415 2°54.942 12.063365 3.232722 27.157611  
2002-04-25 11:57:41 51°14.421 2°54.923 12.063365 3.232722 27.157611  
2002-04-25 11:57:46 51°14.426 2°54.902 12.033132 3.259762 27.440869  
2002-04-25 11:57:51 51°14.43 2°54.881 12.005114 3.281395 27.657939  
2002-04-25 11:57:56 51°14.433 2°54.858 11.984639 3.294415 27.788076  
2002-04-25 11:58:01 51°14.436 2°54.835 11.962884 3.303629 27.882231  
2002-04-25 11:58:06 51°14.438 2°54.812 11.944855 3.307035 27.913463  
2002-04-25 11:58:11 51°14.44 2°54.788 11.944855 3.307035 27.913463  
2002-04-25 11:58:16 51°14.443 2°54.764 11.931284 3.322058 28.060295  
2002-04-25 11:58:21 51°14.445 2°54.739 11.917027 3.364928 28.479337  
2002-04-25 11:58:26 51°14.448 2°54.715 11.942259 3.393075 28.759549  
2002-04-25 11:58:30 51°14.45 2°54.695 11.89771 3.415614 28.990673  
2002-04-25 11:58:36 51°14.452 2°54.665 11.893153 3.440959 29.248146  
2002-04-25 11:58:42 51°14.454 2°54.635 11.884859 3.456186 29.407662  
2002-04-25 11:58:46 51°14.456 2°54.615 11.884859 3.456186 29.407662  
2002-04-25 11:58:50 51°14.457 2°54.596 11.873555 3.467106 29.523057  
2002-04-25 11:58:56 51°14.457 2°54.566 11.85997 3.476222 29.622178  
2002-04-25 11:59:01 51°14.455 2°54.542 11.845835 3.481532 29.687901  
2002-04-25 11:59:06 51°14.452 2°54.519 11.843281 3.484838 29.729135  
2002-04-25 11:59:11 51°14.446 2°54.497 11.84734 3.487543 29.765336  
2002-04-25 11:59:16 51°14.44 2°54.476 11.84734 3.487543 29.765336  
2002-04-25 11:59:21 51°14.433 2°54.455 11.862204 3.489848 29.792772  
2002-04-25 11:59:26 51°14.425 2°54.435 11.866125 3.490349 29.803764  
2002-04-25 11:59:31 51°14.417 2°54.414 11.875287 3.491551 29.823908  
2002-04-25 11:59:36 51°14.41 2°54.393 11.864529 3.491351 29.830144  
2002-04-25 11:59:41 51°14.403 2°54.371 11.864529 3.491351 29.830144  
2002-04-25 11:59:46 51°14.396 2°54.349 11.846336 3.489347 29.819287  
2002-04-25 11:59:51 51°14.389 2°54.328 11.839313 3.49065 29.842283  
2002-04-25 11:59:56 51°14.381 2°54.306 11.896571 3.49055 29.842586  
2002-04-25 12:00:01 51°14.374 2°54.285 11.868495 3.491251 29.846104  
2002-04-25 12:00:06 51°14.366 2°54.264 11.867903 3.490349 29.835047  
2002-04-25 12:00:11 51°14.358 2°54.243 11.867903 3.490349 29.835047  
2002-04-25 12:00:16 51°14.35 2°54.223 11.86886 3.492653 29.854392  
2002-04-25 12:00:21 51°14.341 2°54.203 11.867903 3.493154 29.859769  
2002-04-25 12:00:26 51°14.333 2°54.183 11.866854 3.493655 29.87079  
2002-04-25 12:00:31 51°14.324 2°54.163 11.901401 3.494156 29.878051  
2002-04-25 12:00:36 51°14.315 2°54.143 11.862341 3.49636 29.898333  
2002-04-25 12:00:41 51°14.306 2°54.124 11.862341 3.49636 29.898333  
2002-04-25 12:00:46 51°14.297 2°54.104 11.860791 3.497462 29.905648  
2002-04-25 12:00:51 51°14.288 2°54.084 11.861064 3.500768 29.933871  
2002-04-25 12:00:56 51°14.279 2°54.064 11.872689 3.500868 29.933565  
2002-04-25 12:01:00 51°14.272 2°54.048 11.870683 3.504375 29.966832  
2002-04-25 12:01:06 51°14.262 2°54.024 11.906686 3.505778 29.98014  
2002-04-25 12:01:11 51°14.253 2°54.003 11.906686 3.505778 29.98014  
2002-04-25 12:01:16 51°14.244 2°53.983 11.868769 3.505176 29.974437  
2002-04-25 12:01:20 51°14.238 2°53.967 11.911561 3.50718 29.995339  
2002-04-25 12:01:26 51°14.228 2°53.943 11.878888 3.507881 30.001994  
2002-04-25 12:01:31 51°14.219 2°53.922 11.880073 3.508282 30.005797  
2002-04-25 12:01:36 51°14.211 2°53.903 11.885588 3.508883 30.008982  
2002-04-25 12:01:41 51°14.202 2°53.882 11.885588 3.508883 30.008982  
2002-04-25 12:01:45 51°14.195 2°53.866 11.88454 3.509585 30.015007  
2002-04-25 12:01:50 51°14.187 2°53.845 11.888095 3.508683 30.005821  
2002-04-25 12:01:56 51°14.177 2°53.821 11.890191 3.509685 30.015328  
2002-04-25 12:02:01 51°14.168 2°53.801 11.892151 3.511288 30.028649  
2002-04-25 12:02:06 51°14.16 2°53.78 11.89288 3.511488 30.028659  
2002-04-25 12:02:11 51°14.151 2°53.759 11.889781 3.511688 30.0293  
2002-04-25 12:02:16 51°14.143 2°53.739 11.889781 3.511688 30.0293  
2002-04-25 12:02:21 51°14.134 2°53.718 11.927003 3.510887 30.019174  
2002-04-25 12:02:26 51°14.125 2°53.697 11.888459 3.513191 30.039777  
2002-04-25 12:02:31 51°14.116 2°53.676 11.889781 3.51279 30.034084  
2002-04-25 12:02:36 51°14.107 2°53.655 11.882079 3.514794 30.051203  
2002-04-25 12:02:41 51°14.098 2°53.633 11.882079 3.514794 30.051203  
2002-04-25 12:02:46 51°14.089 2°53.611 11.878706 3.515395 30.055645  
2002-04-25 12:02:51 51°14.08 2°53.589 11.874877 3.516096 30.062299  
2002-04-25 12:02:56 51°14.071 2°53.568 11.89976 3.515896 30.059136  
2002-04-25 12:03:01 51°14.062 2°53.546 11.857873 3.516998 30.069592  
2002-04-25 12:03:06 51°14.052 2°53.525 11.858283 3.516698 30.068633  
2002-04-25 12:03:11 51°14.043 2°53.503 11.85687 3.515596 30.058177  
2002-04-25 12:03:16 51°14.034 2°53.481 11.85687 3.515596 30.058177  
2002-04-25 12:03:21 51°14.025 2°53.459 11.856186 3.5179 30.081934  
2002-04-25 12:03:26 51°14.015 2°53.437 11.853952 3.518401 30.089214  
2002-04-25 12:03:31 51°14.006 2°53.415 11.855046 3.516798 30.077157  
2002-04-25 12:03:36 51°13.997 2°53.392 11.851672 3.518601 30.098696  
2002-04-25 12:03:41 51°13.987 2°53.371 11.84661 3.516798 30.08663  
2002-04-25 12:03:46 51°13.978 2°53.349 11.84661 3.516798 30.08663  
2002-04-25 12:03:51 51°13.969 2°53.327 11.849209 3.518401 30.104378  
2002-04-25 12:03:56 51°13.96 2°53.304 11.848525 3.518301 30.105323  
2002-04-25 12:04:01 51°13.95 2°53.282 11.848571 3.519102 30.114831  
2002-04-25 12:04:05 51°13.943 2°53.265 11.847796 3.518501 30.110387  
2002-04-25 12:04:11 51°13.932 2°53.238 11.847796 3.518501 30.110387  
2002-04-25 12:04:16 51°13.924 2°53.215 11.845242 3.5176 30.102457  
2002-04-25 12:04:21 51°13.915 2°53.193 11.851444 3.519403 30.121481  
2002-04-25 12:04:26 51°13.907 2°53.17 11.846747 3.518702 30.116718  
2002-04-25 12:04:31 51°13.898 2°53.147 11.846975 3.518602 30.115134  
2002-04-25 12:04:36 51°13.891 2°53.123 11.846473 3.520104 30.131307  
2002-04-25 12:04:41 51°13.883 2°53.099 11.846473 3.520104 30.131307  
2002-04-25 12:04:45 51°13.876 2°53.079 11.84734 3.519002 30.120206  
2002-04-25 12:04:51 51°13.866 2°53.052 11.848708 3.518301 30.113544  
2002-04-25 12:04:56 51°13.858 2°53.029 11.851854 3.520405 30.134795  
2002-04-25 12:05:01 51°13.849 2°53.007 11.855274 3.520505 30.135114  
2002-04-25 12:05:06 51°13.841 2°52.984 11.858967 3.520605 30.137332  
2002-04-25 12:05:11 51°13.832 2°52.962 11.858967 3.520605 30.137332  
2002-04-25 12:05:16 51°13.824 2°52.939 11.862295 3.518702 30.119882  
2002-04-25 12:05:21 51°13.815 2°52.917 11.858374 3.520505 30.137014  
2002-04-25 12:05:26 51°13.807 2°52.894 11.854043 3.518602 30.11893  
2002-04-25 12:05:31 51°13.798 2°52.871 11.858967 3.519403 30.126544  
2002-04-25 12:05:36 51°13.79 2°52.849 11.855091 3.519604 30.127182  
2002-04-25 12:05:41 51°13.782 2°52.826 11.855091 3.519604 30.127182  
2002-04-25 12:05:46 51°13.773 2°52.803 11.854362 3.522008 30.148124  
2002-04-25 12:05:51 51°13.765 2°52.78 11.856733 3.520004 30.127191  
2002-04-25 12:05:56 51°13.756 2°52.758 11.852036 3.521808 30.142421  
2002-04-25 12:06:01 51°13.748 2°52.735 11.848206 3.52291 30.152889  
2002-04-25 12:06:06 51°13.739 2°52.712 11.842916 3.523411 30.158281  
2002-04-25 12:06:11 51°13.731 2°52.688 11.84547 3.523611 30.160818  
2002-04-25 12:06:16 51°13.723 2°52.665 11.84547 3.523611 30.160818  
2002-04-25 12:06:21 51°13.715 2°52.642 11.845516 3.524212 30.165262  
2002-04-25 12:06:26 51°13.706 2°52.62 11.847203 3.52291 30.154156  
2002-04-25 12:06:31 51°13.698 2°52.598 11.859377 3.522108 30.147176  
2002-04-25 12:06:36 51°13.689 2°52.575 11.861247 3.521006 30.13734  
2002-04-25 12:06:41 51°13.681 2°52.553 11.861247 3.521006 30.13734  
2002-04-25 12:06:45 51°13.674 2°52.534 11.872461 3.521607 30.145584  
2002-04-25 12:06:51 51°13.664 2°52.506 11.872598 3.522709 30.157954  
2002-04-25 12:06:56 51°13.656 2°52.484 11.887958 3.521307 30.145895  
2002-04-25 12:07:01 51°13.647 2°52.461 11.899122 3.525214 30.183655  
2002-04-25 12:07:06 51°13.639 2°52.438 11.884358 3.525515 30.185243  
2002-04-25 12:07:11 51°13.631 2°52.415 11.883309 3.525615 30.183658  
2002-04-25 12:07:16 51°13.622 2°52.392 11.883309 3.525615 30.183658  
2002-04-25 12:07:21 51°13.614 2°52.369 11.868997 3.526416 30.187469  
2002-04-25 12:07:25 51°13.607 2°52.35 11.855639 3.527418 30.192548  
2002-04-25 12:07:31 51°13.597 2°52.323 11.846519 3.52872 30.199213  
2002-04-25 12:07:36 51°13.588 2°52.3 11.840636 3.529923 30.206828  
2002-04-25 12:07:41 51°13.58 2°52.278 11.840636 3.529923 30.206828  
2002-04-25 12:07:45 51°13.573 2°52.26 11.836987 3.531125 30.21127  
2002-04-25 12:07:51 51°13.563 2°52.231 11.831012 3.532127 30.220784  
2002-04-25 12:07:56 51°13.554 2°52.207 11.826497 3.532728 30.227127  
2002-04-25 12:08:01 51°13.546 2°52.185 11.821889 3.532828 30.232521  
2002-04-25 12:08:06 51°13.537 2°52.162 11.81459 3.532828 30.238234  
2002-04-25 12:08:11 51°13.528 2°52.14 11.81459 3.532828 30.238234  
2002-04-25 12:08:16 51°13.52 2°52.117 11.813632 3.532828 30.246491  
2002-04-25 12:08:21 51°13.511 2°52.094 11.813951 3.532528 30.249989  
2002-04-25 12:08:26 51°13.503 2°52.071 11.811761 3.532327 30.251898  
2002-04-25 12:08:31 51°13.494 2°52.049 11.808658 3.531225 30.245871  
2002-04-25 12:08:36 51°13.486 2°52.026 11.813221 3.531827 30.256673  
2002-04-25 12:08:41 51°13.477 2°52.003 11.813221 3.531827 30.256673  
2002-04-25 12:08:46 51°13.468 2°51.98 11.809799 3.532428 30.26557  
2002-04-25 12:08:51 51°13.46 2°51.957 11.815594 3.533229 30.277011  
2002-04-25 12:08:56 51°13.452 2°51.933 11.813084 3.534432 30.291632  
2002-04-25 12:09:01 51°13.443 2°51.91 11.80916 3.535935 30.308478  
2002-04-25 12:09:06 51°13.435 2°51.887 11.80729 3.537037 30.320239  
2002-04-25 12:09:11 51°13.427 2°51.864 11.80729 3.537037 30.320239  
2002-04-25 12:09:16 51°13.418 2°51.841 11.80802 3.537838 30.328504  
2002-04-25 12:09:21 51°13.409 2°51.818 11.810392 3.53864 30.338045  
2002-04-25 12:09:26 51°13.401 2°51.795 11.810392 3.53894 30.340906  
2002-04-25 12:09:31 51°13.392 2°51.773 11.807153 3.539742 30.347896  
2002-04-25 12:09:36 51°13.384 2°51.75 11.808522 3.539942 30.350441  
2002-04-25 12:09:41 51°13.375 2°51.727 11.807381 3.539742 30.349172  
2002-04-25 12:09:46 51°13.366 2°51.705 11.807381 3.539742 30.349172  
2002-04-25 12:09:51 51°13.358 2°51.681 11.806514 3.53874 30.340914  
2002-04-25 12:09:56 51°13.35 2°51.659 11.804324 3.539241 30.345681  
2002-04-25 12:10:01 51°13.341 2°51.636 11.80259 3.539041 30.342498  
2002-04-25 12:10:06 51°13.332 2°51.613 11.800764 3.53854 30.33773  
2002-04-25 12:10:11 51°13.323 2°51.591 11.804597 3.537337 30.327564  
2002-04-25 12:10:16 51°13.315 2°51.567 11.804597 3.537337 30.327564  
2002-04-25 12:10:21 51°13.306 2°51.545 11.807061 3.538039 30.334877  
2002-04-25 12:10:26 51°13.298 2°51.521 11.803092 3.537939 30.334561  
2002-04-25 12:10:31 51°13.289 2°51.498 11.80948 3.538139 30.33583  
2002-04-25 12:10:36 51°13.281 2°51.476 11.846975 3.538239 30.33806  
2002-04-25 12:10:41 51°13.272 2°51.453 11.80405 3.538339 30.339652  
2002-04-25 12:10:46 51°13.264 2°51.431 11.80405 3.538339 30.339652  
2002-04-25 12:10:51 51°13.255 2°51.409 11.801723 3.538239 30.339337  
2002-04-25 12:10:56 51°13.246 2°51.386 11.809389 3.53854 30.342198  
2002-04-25 12:11:01 51°13.238 2°51.364 11.815092 3.53894 30.345374  
2002-04-25 12:11:06 51°13.229 2°51.342 11.819152 3.539241 30.347596  
2002-04-25 12:11:11 51°13.221 2°51.319 11.814225 3.539441 30.348865  
2002-04-25 12:11:16 51°13.212 2°51.297 11.814225 3.539441 30.348865  
2002-04-25 12:11:21 51°13.204 2°51.274 11.817464 3.540043 30.353948  
2002-04-25 12:11:26 51°13.196 2°51.25 11.822893 3.540243 30.356494  
2002-04-25 12:11:31 51°13.187 2°51.227 11.8124 3.460997 29.604112  
2002-04-25 12:11:36 51°13.179 2°51.204 11.815685 3.541044 30.363485  
2002-04-25 12:11:41 51°13.17 2°51.182 11.815685 3.541044 30.363485  
2002-04-25 12:11:46 51°13.161 2°51.16 11.81313 3.541345 30.365068  
2002-04-25 12:11:51 51°13.153 2°51.137 11.81792 3.542347 30.371411  
2002-04-25 12:11:56 51°13.144 2°51.115 11.815594 3.542647 30.374271  
2002-04-25 12:12:01 51°13.136 2°51.092 11.814818 3.542848 30.37554  
2002-04-25 12:12:06 51°13.127 2°51.069 11.816095 3.542748 30.37267  
2002-04-25 12:12:11 51°13.119 2°51.047 11.816095 3.542748 30.37267  
2002-04-25 12:12:16 51°13.11 2°51.024 11.843418 3.542848 30.374262  
2002-04-25 12:12:21 51°13.102 2°50.999 11.804689 3.542647 30.373633  
2002-04-25 12:12:26 51°13.094 2°50.975 11.797114 3.542247 30.369818  
2002-04-25 12:12:31 51°13.086 2°50.952 11.793782 3.542347 30.370772  
2002-04-25 12:12:36 51°13.077 2°50.93 11.830647 3.542146 30.369503  
2002-04-25 12:12:41 51°13.068 2°50.907 11.830647 3.542146 30.369503  
2002-04-25 12:12:46 51°13.059 2°50.886 11.791318 3.542046 30.367911  
2002-04-25 12:12:51 51°13.052 2°50.864 11.790496 3.542146 30.369503  
2002-04-25 12:12:56 51°13.043 2°50.84 11.787119 3.541746 30.367605  
2002-04-25 12:13:01 51°13.035 2°50.816 11.78438 3.541946 30.371429  
2002-04-25 12:13:06 51°13.026 2°50.793 11.778537 3.541746 30.373994  
2002-04-25 12:13:11 51°13.018 2°50.77 11.777579 3.541545 30.373365  
2002-04-25 12:13:16 51°13.009 2°50.747 11.777579 3.541545 30.373365  
2002-04-25 12:13:21 51°13 2°50.724 11.779268 3.541646 30.376875  
2002-04-25 12:13:26 51°12.992 2°50.701 11.783148 3.541546 30.377839  
2002-04-25 12:13:31 51°12.983 2°50.678 11.776985 3.541145 30.37658  
2002-04-25 12:13:36 51°12.975 2°50.654 11.777076 3.541145 30.377859  
2002-04-25 12:13:41 51°12.966 2°50.631 11.776757 3.541145 30.380417  
2002-04-25 12:13:46 51°12.957 2°50.609 11.776757 3.541145 30.380417  
2002-04-25 12:13:51 51°12.949 2°50.586 11.776026 3.540944 30.379787  
2002-04-25 12:13:56 51°12.939 2°50.563 11.77452 3.540644 30.379482  
2002-04-25 12:14:01 51°12.93 2°50.539 11.774566 3.540444 30.378853  
2002-04-25 12:14:06 51°12.922 2°50.515 11.772603 3.540544 30.379807  
2002-04-25 12:14:11 51°12.913 2°50.492 11.772603 3.540544 30.379807  
2002-04-25 12:14:16 51°12.904 2°50.469 11.772831 3.540544 30.380447  
2002-04-25 12:14:21 51°12.895 2°50.447 11.811715 3.540343 30.379817  
2002-04-25 12:14:26 51°12.887 2°50.424 11.810712 3.540143 30.377909  
2002-04-25 12:14:31 51°12.878 2°50.401 11.775387 3.540243 30.380142  
2002-04-25 12:14:36 51°12.87 2°50.378 11.777213 3.539943 30.377919  
2002-04-25 12:14:41 51°12.861 2°50.355 11.781732 3.539843 30.377604  
2002-04-25 12:14:46 51°12.852 2°50.331 11.781732 3.539843 30.377604  
2002-04-25 12:14:51 51°12.844 2°50.308 11.785202 3.539642 30.375695  
2002-04-25 12:14:56 51°12.835 2°50.285 11.786388 3.539742 30.377929  
2002-04-25 12:15:01 51°12.826 2°50.262 11.78899 3.539642 30.377614  
2002-04-25 12:15:05 51°12.819 2°50.244 11.787347 3.539442 30.375066  
2002-04-25 12:15:11 51°12.809 2°50.214 11.787347 3.539442 30.375066  
2002-04-25 12:15:16 51°12.801 2°50.191 11.790816 3.539342 30.373472  
2002-04-25 12:15:21 51°12.792 2°50.168 11.792824 3.539742 30.37601  
2002-04-25 12:15:26 51°12.783 2°50.145 11.799122 3.540143 30.378548  
2002-04-25 12:15:31 51°12.775 2°50.123 11.802727 3.540143 30.377269  
2002-04-25 12:15:36 51°12.766 2°50.1 11.800125 3.540544 30.378528  
2002-04-25 12:15:41 51°12.757 2°50.077 11.800125 3.540544 30.378528  
2002-04-25 12:15:46 51°12.749 2°50.053 11.798483 3.540844 30.380751  
2002-04-25 12:15:51 51°12.741 2°50.029 11.791683 3.541245 30.383929  
2002-04-25 12:15:56 51°12.733 2°50.006 11.787119 3.540243 30.372468  
2002-04-25 12:16:01 51°12.725 2°49.982 11.820749 3.540744 30.375321  
2002-04-25 12:16:06 51°12.717 2°49.958 11.779039 3.541145 30.375941  
2002-04-25 12:16:11 51°12.708 2°49.935 11.779039 3.541145 30.375941  
2002-04-25 12:16:16 51°12.701 2°49.911 11.775981 3.541746 30.379747  
2002-04-25 12:16:21 51°12.692 2°49.888 11.769909 3.54385 30.399142  
2002-04-25 12:16:26 51°12.684 2°49.864 11.767809 3.543349 30.395012  
2002-04-25 12:16:31 51°12.676 2°49.84 11.764111 3.54395 30.402016  
2002-04-25 12:16:36 51°12.668 2°49.816 11.761736 3.543349 30.39885  
2002-04-25 12:16:41 51°12.659 2°49.793 11.765252 3.54385 30.405541  
2002-04-25 12:16:46 51°12.651 2°49.768 11.765252 3.54385 30.405541  
2002-04-25 12:16:51 51°12.643 2°49.745 11.767398 3.542147 30.393797  
2002-04-25 12:16:56 51°12.635 2°49.721 11.770548 3.542948 30.403992  
2002-04-25 12:17:01 51°12.627 2°49.698 11.774337 3.542047 30.398603  
2002-04-25 12:17:06 51°12.619 2°49.674 11.778218 3.541145 30.393212  
2002-04-25 12:17:11 51°12.61 2°49.651 11.780454 3.541045 30.395458  
2002-04-25 12:17:16 51°12.602 2°49.628 11.780454 3.541045 30.395458  
2002-04-25 12:17:21 51°12.594 2°49.604 11.786114 3.541345 30.400243  
2002-04-25 12:17:26 51°12.585 2°49.581 11.789903 3.540845 30.395469  
2002-04-25 12:17:31 51°12.577 2°49.557 11.789127 3.542448 30.411386  
2002-04-25 12:17:36 51°12.569 2°49.534 11.790679 3.542748 30.411688  
2002-04-25 12:17:41 51°12.561 2°49.509 11.793326 3.542848 30.411362  
2002-04-25 12:17:46 51°12.553 2°49.485 11.793326 3.542848 30.411362  
2002-04-25 12:17:51 51°12.544 2°49.461 11.798254 3.543449 30.414528  
2002-04-25 12:17:55 51°12.538 2°49.441 11.80656 3.54375 30.41547  
2002-04-25 12:18:01 51°12.528 2°49.413 11.809434 3.544551 30.419264  
2002-04-25 12:18:06 51°12.52 2°49.389 11.8436 3.545153 30.422429  
2002-04-25 12:18:11 51°12.512 2°49.365 11.8436 3.545153 30.422429  
2002-04-25 12:18:16 51°12.504 2°49.342 11.81208 3.545052 30.420834  
2002-04-25 12:18:21 51°12.496 2°49.318 11.80989 3.545453 30.422731  
2002-04-25 12:18:26 51°12.487 2°49.296 11.815959 3.546054 30.426536  
2002-04-25 12:18:31 51°12.479 2°49.272 11.812993 3.546856 30.431609  
2002-04-25 12:18:36 51°12.471 2°49.248 11.810529 3.547056 30.429675  
2002-04-25 12:18:41 51°12.463 2°49.225 11.810529 3.547056 30.429675  
2002-04-25 12:18:46 51°12.454 2°49.202 11.806925 3.547757 30.434433  
2002-04-25 12:18:51 51°12.446 2°49.179 11.804324 3.548158 30.435688  
2002-04-25 12:18:56 51°12.438 2°49.155 11.803457 3.548358 30.436315  
2002-04-25 12:19:01 51°12.43 2°49.132 11.800764 3.54906 30.440432  
2002-04-25 12:19:06 51°12.422 2°49.108 11.800354 3.549661 30.444875  
2002-04-25 12:19:11 51°12.414 2°49.085 11.800354 3.549661 30.444875  
2002-04-25 12:19:16 51°12.406 2°49.062 11.80259 3.550262 30.449959  
2002-04-25 12:19:21 51°12.398 2°49.038 11.799897 3.550763 30.454088  
2002-04-25 12:19:26 51°12.39 2°49.014 11.801449 3.551264 30.460781  
2002-04-25 12:19:31 51°12.382 2°48.99 11.797022 3.549561 30.446483  
2002-04-25 12:19:36 51°12.373 2°48.967 11.790496 3.549861 30.450627  
2002-04-25 12:19:41 51°12.365 2°48.943 11.790496 3.549861 30.450627  
2002-04-25 12:19:46 51°12.357 2°48.92 11.788077 3.552366 30.476405  
2002-04-25 12:19:51 51°12.349 2°48.896 11.783284 3.552767 30.480864  
2002-04-25 12:19:56 51°12.341 2°48.873 11.786708 3.552867 30.481177  
2002-04-25 12:20:01 51°12.333 2°48.848 11.823258 3.552567 30.479597  
2002-04-25 12:20:06 51°12.324 2°48.825 11.789538 3.551164 30.467518  
2002-04-25 12:20:11 51°12.317 2°48.801 11.789538 3.551164 30.467518  
2002-04-25 12:20:16 51°12.308 2°48.778 11.784973 3.552667 30.483117  
2002-04-25 12:20:21 51°12.3 2°48.754 11.777807 3.551965 30.479002  
2002-04-25 12:20:26 51°12.292 2°48.731 11.775524 3.552567 30.487937  
2002-04-25 12:20:31 51°12.284 2°48.707 11.77525 3.551364 30.477765  
2002-04-25 12:20:36 51°12.275 2°48.684 11.783284 3.552967 30.493681  
2002-04-25 12:20:41 51°12.267 2°48.66 11.816917 3.552967 30.494965  
2002-04-25 12:20:46 51°12.259 2°48.637 11.816917 3.552967 30.494965  
2002-04-25 12:20:50 51°12.252 2°48.618 11.778035 3.552967 30.495607  
2002-04-25 12:20:56 51°12.243 2°48.59 11.772603 3.553368 30.50071  
2002-04-25 12:21:01 51°12.235 2°48.566 11.808658 3.553468 30.504234  
2002-04-25 12:21:06 51°12.227 2°48.542 11.774246 3.553769 30.507741  
2002-04-25 12:21:11 51°12.219 2°48.518 11.785795 3.553869 30.510623  
2002-04-25 12:21:16 51°12.211 2°48.495 11.785795 3.553869 30.510623  
2002-04-25 12:21:21 51°12.203 2°48.471 11.797159 3.55447 30.515711  
2002-04-25 12:21:26 51°12.194 2°48.447 11.796064 3.555472 30.525261  
2002-04-25 12:21:31 51°12.186 2°48.423 11.800993 3.556875 30.539275  
2002-04-25 12:21:36 51°12.178 2°48.4 11.798985 3.557977 30.551069  
2002-04-25 12:21:41 51°12.17 2°48.377 11.798985 3.557977 30.551069  
2002-04-25 12:21:46 51°12.162 2°48.353 11.802362 3.558979 30.561908  
2002-04-25 12:21:51 51°12.154 2°48.33 11.808293 3.55968 30.567308  
2002-04-25 12:21:56 51°12.146 2°48.307 11.79935 3.560983 30.576508  
2002-04-25 12:22:01 51°12.138 2°48.283 11.791044 3.561584 30.57902  
2002-04-25 12:22:06 51°12.13 2°48.259 11.78689 3.562786 30.586618  
2002-04-25 12:22:11 51°12.122 2°48.235 11.78689 3.562786 30.586618  
2002-04-25 12:22:16 51°12.114 2°48.211 11.7784 3.563888 30.594548  
2002-04-25 12:22:21 51°12.107 2°48.187 11.768722 3.56459 30.599302  
2002-04-25 12:22:26 51°12.099 2°48.162 11.770183 3.56489 30.600235  
2002-04-25 12:22:31 51°12.093 2°48.137 11.770411 3.565091 30.600213  
2002-04-25 12:22:36 51°12.086 2°48.112 11.770229 3.565592 30.604987  
2002-04-25 12:22:41 51°12.079 2°48.087 11.770229 3.565592 30.604987  
2002-04-25 12:22:46 51°12.073 2°48.062 11.766302 3.565992 30.612028  
2002-04-25 12:22:51 51°12.067 2°48.036 11.762741 3.565391 30.609519  
2002-04-25 12:22:56 51°12.061 2°48.011 11.758038 3.565291 30.611142  
2002-04-25 12:23:01 51°12.054 2°47.985 11.75306 3.565391 30.617253  
2002-04-25 12:23:06 51°12.048 2°47.96 11.749224 3.565091 30.6189  
2002-04-25 12:23:11 51°12.041 2°47.935 11.749224 3.565091 30.6189  
2002-04-25 12:23:16 51°12.035 2°47.91 11.742282 3.565392 30.622411  
2002-04-25 12:23:21 51°12.028 2°47.885 11.752558 3.565492 30.625947  
2002-04-25 12:23:26 51°12.021 2°47.86 11.757809 3.565492 30.628527  
2002-04-25 12:23:31 51°12.014 2°47.835 11.793965 3.565792 30.63333  
2002-04-25 12:23:36 51°12.008 2°47.81 11.749727 3.566193 30.641026  
2002-04-25 12:23:41 51°12.001 2°47.785 11.749727 3.566193 30.641026  
2002-04-25 12:23:46 51°11.994 2°47.761 11.750503 3.566494 30.647123  
2002-04-25 12:23:51 51°11.988 2°47.736 11.752056 3.566995 30.654487  
2002-04-25 12:23:56 51°11.981 2°47.711 11.761006 3.567195 30.65963  
2002-04-25 12:24:01 51°11.974 2°47.686 11.772511 3.568097 30.668236  
2002-04-25 12:24:06 51°11.968 2°47.661 11.771461 3.569199 30.676816  
2002-04-25 12:24:11 51°11.961 2°47.637 11.76685 3.570502 30.689248  
2002-04-25 12:24:16 51°11.954 2°47.612 11.76685 3.570502 30.689248  
2002-04-25 12:24:21 51°11.948 2°47.588 11.765983 3.571804 30.701681  
2002-04-25 12:24:26 51°11.941 2°47.563 11.768631 3.573007 30.714453  
2002-04-25 12:24:31 51°11.934 2°47.538 11.808157 3.574008 30.722723  
2002-04-25 12:24:36 51°11.928 2°47.513 11.805054 3.57501 30.729698  
2002-04-25 12:24:41 51°11.921 2°47.489 11.762467 3.576012 30.735376  
2002-04-25 12:24:46 51°11.915 2°47.464 11.762467 3.576012 30.735376  
2002-04-25 12:24:51 51°11.908 2°47.439 11.764339 3.576513 30.738863  
2002-04-25 12:24:56 51°11.901 2°47.415 11.762467 3.577215 30.744262  
2002-04-25 12:25:01 51°11.895 2°47.39 11.758905 3.577716 30.749044  
2002-04-25 12:25:06 51°11.888 2°47.365 11.755298 3.578217 30.753178  
2002-04-25 12:25:11 51°11.881 2°47.341 11.755298 3.578217 30.753178  
2002-04-25 12:25:16 51°11.874 2°47.316 11.753791 3.578617 30.757003  
2002-04-25 12:25:21 51°11.868 2°47.291 11.76822 3.579319 30.76305  
2002-04-25 12:25:26 51°11.861 2°47.267 11.771324 3.579118 30.763081  
2002-04-25 12:25:31 51°11.854 2°47.242 11.773196 3.579118 30.763081  
2002-04-25 12:25:36 51°11.847 2°47.217 11.769544 3.579319 30.766291  
2002-04-25 12:25:41 51°11.841 2°47.193 11.769544 3.579319 30.766291  
2002-04-25 12:25:46 51°11.834 2°47.168 11.767489 3.579219 30.766631  
2002-04-25 12:25:51 51°11.827 2°47.143 11.763654 3.579219 30.768576  
2002-04-25 12:25:56 51°11.821 2°47.119 11.762786 3.579619 30.772402  
2002-04-25 12:26:01 51°11.814 2°47.094 11.770548 3.580822 30.780639  
2002-04-25 12:26:06 51°11.807 2°47.069 11.779176 3.582926 30.79878  
2002-04-25 12:26:11 51°11.801 2°47.044 11.770229 3.584028 30.808005  
2002-04-25 12:26:16 51°11.794 2°47.02 11.770229 3.584028 30.808005  
2002-04-25 12:26:21 51°11.787 2°46.995 11.761782 3.585631 30.822012  
2002-04-25 12:26:26 51°11.781 2°46.97 11.752969 3.586934 30.835098  
2002-04-25 12:26:31 51°11.774 2°46.946 11.750823 3.587535 30.841488  
2002-04-25 12:26:36 51°11.767 2°46.921 11.747717 3.588136 30.847879  
2002-04-25 12:26:41 51°11.761 2°46.896 11.747717 3.588136 30.847879  
2002-04-25 12:26:46 51°11.754 2°46.872 11.74726 3.588837 30.851976  
2002-04-25 12:26:51 51°11.747 2°46.847 11.745251 3.589438 30.856417  
2002-04-25 12:26:56 51°11.741 2°46.822 11.744383 3.589839 30.861544  
2002-04-25 12:27:01 51°11.734 2°46.797 11.737029 3.59024 30.867322  
2002-04-25 12:27:06 51°11.727 2°46.773 11.73269 3.590841 30.876966  
2002-04-25 12:27:11 51°11.721 2°46.748 11.73269 3.590841 30.876966  
2002-04-25 12:27:16 51°11.714 2°46.723 11.751371 3.591242 30.88535  
2002-04-25 12:27:21 51°11.707 2°46.698 11.759682 3.591843 30.893046  
2002-04-25 12:27:26 51°11.7 2°46.673 11.76201 3.592344 30.900438  
2002-04-25 12:27:31 51°11.694 2°46.649 11.801266 3.593146 30.908748  
2002-04-25 12:27:36 51°11.687 2°46.624 11.764339 3.593647 30.91549  
2002-04-25 12:27:41 51°11.68 2°46.599 11.782737 3.593948 30.921622  
2002-04-25 12:27:46 51°11.673 2°46.574 11.782737 3.593948 30.921622  
2002-04-25 12:27:51 51°11.667 2°46.549 11.795151 3.594148 30.924189  
2002-04-25 12:27:56 51°11.66 2°46.524 11.78365 3.594048 30.91932  
2002-04-25 12:28:01 51°11.654 2°46.499 11.753471 3.593847 30.914798  
2002-04-25 12:28:06 51°11.647 2°46.475 11.755937 3.594248 30.91537  
2002-04-25 12:28:11 51°11.64 2°46.45 11.746256 3.594949 30.918813  
2002-04-25 12:28:16 51°11.633 2°46.425 11.746256 3.594949 30.918813  
2002-04-25 12:28:21 51°11.626 2°46.4 11.730589 3.596052 30.925433  
2002-04-25 12:28:26 51°11.62 2°46.375 11.725244 3.597454 30.931665  
2002-04-25 12:28:31 51°11.613 2°46.351 11.720858 3.599057 30.942415  
2002-04-25 12:28:36 51°11.606 2°46.326 11.735568 3.60016 30.954245  
2002-04-25 12:28:41 51°11.599 2°46.301 11.770183 3.600961 30.965163  
2002-04-25 12:28:46 51°11.592 2°46.277 11.770183 3.600961 30.965163  
2002-04-25 12:28:51 51°11.586 2°46.252 11.795197 3.601663 30.979695  
2002-04-25 12:28:56 51°11.579 2°46.228 11.839587 3.602364 30.992928  
2002-04-25 12:29:01 51°11.572 2°46.203 11.790222 3.602865 31.004905  
2002-04-25 12:29:06 51°11.565 2°46.178 11.789492 3.603066 31.012705  
2002-04-25 12:29:11 51°11.559 2°46.154 11.789492 3.603066 31.012705  
2002-04-25 12:29:16 51°11.552 2°46.129 11.785475 3.603767 31.023992  
2002-04-25 12:29:21 51°11.545 2°46.104 11.772922 3.604068 31.022941  
2002-04-25 12:29:26 51°11.539 2°46.079 11.772968 3.604769 31.019836  
2002-04-25 12:29:31 51°11.532 2°46.054 11.771461 3.604969 31.006719  
2002-04-25 12:29:36 51°11.526 2°46.03 11.782235 3.606472 31.012587  
2002-04-25 12:29:41 51°11.519 2°46.005 11.787027 3.607975 31.023026  
2002-04-25 12:29:46 51°11.512 2°45.981 11.787027 3.607975 31.023026  
2002-04-25 12:29:51 51°11.505 2°45.956 11.809297 3.608476 31.025198  
2002-04-25 12:29:56 51°11.498 2°45.931 11.821524 3.609278 31.033509  
2002-04-25 12:30:01 51°11.491 2°45.907 11.846564 3.609478 31.039998  
2002-04-25 12:30:06 51°11.485 2°45.882 11.849072 3.609979 31.047401  
2002-04-25 12:30:11 51°11.478 2°45.858 11.849072 3.609979 31.047401  
2002-04-25 12:30:16 51°11.471 2°45.833 11.852036 3.61058 31.054454  
2002-04-25 12:30:21 51°11.465 2°45.809 11.845607 3.610781 31.054406  
2002-04-25 12:30:26 51°11.458 2°45.784 11.831058 3.612284 31.063534  
2002-04-25 12:30:31 51°11.451 2°45.76 11.830055 3.614288 31.076792  
2002-04-25 12:30:36 51°11.444 2°45.735 11.841822 3.61579 31.081335  
2002-04-25 12:30:41 51°11.438 2°45.711 11.841822 3.61579 31.081335  
2002-04-25 12:30:46 51°11.431 2°45.686 11.84848 3.617794 31.089352  
2002-04-25 12:30:51 51°11.424 2°45.662 11.836075 3.619698 31.098371  
2002-04-25 12:30:56 51°11.418 2°45.637 11.832426 3.6209 31.103308  
2002-04-25 12:31:01 51°11.411 2°45.613 11.82709 3.621401 31.107436  
2002-04-25 12:31:06 51°11.404 2°45.588 11.825082 3.622002 31.115137  
2002-04-25 12:31:11 51°11.397 2°45.564 11.808887 3.622504 31.121228  
2002-04-25 12:31:16 51°11.39 2°45.539 11.808887 3.622504 31.121228  
2002-04-25 12:31:21 51°11.383 2°45.515 11.822117 3.623105 31.125658  
2002-04-25 12:31:26 51°11.376 2°45.49 11.767809 3.625109 31.14217  
2002-04-25 12:31:31 51°11.369 2°45.465 11.756302 3.626411 31.155915  
2002-04-25 12:31:36 51°11.362 2°45.44 11.750549 3.627113 31.165233  
2002-04-25 12:31:41 51°11.355 2°45.415 11.747352 3.627213 31.169467  
2002-04-25 12:31:46 51°11.348 2°45.39 11.747352 3.627213 31.169467  
2002-04-25 12:31:51 51°11.341 2°45.366 11.744748 3.627915 31.1801  
2002-04-25 12:31:56 51°11.334 2°45.341 11.74315 3.629718 31.205203  
2002-04-25 12:32:01 51°11.327 2°45.316 11.745388 3.631021 31.227505  
2002-04-25 12:32:06 51°11.32 2°45.291 11.745753 3.631622 31.2418  
2002-04-25 12:32:11 51°11.313 2°45.266 11.743652 3.631823 31.253587  
2002-04-25 12:32:16 51°11.306 2°45.241 11.743652 3.631823 31.253587  
2002-04-25 12:32:21 51°11.299 2°45.217 11.741871 3.632324 31.269576  
2002-04-25 12:32:26 51°11.292 2°45.192 11.74452 3.632324 31.276826  
2002-04-25 12:32:31 51°11.285 2°45.167 11.747123 3.632525 31.28204  
2002-04-25 12:32:36 51°11.278 2°45.142 11.753654 3.632525 31.284678  
2002-04-25 12:32:41 51°11.271 2°45.117 11.753654 3.632525 31.284678  
2002-04-25 12:32:46 51°11.265 2°45.092 11.758905 3.632625 31.286957  
2002-04-25 12:32:51 51°11.26 2°45.066 11.76201 3.633226 31.293371  
2002-04-25 12:32:56 51°11.258 2°45.04 11.778355 3.633627 31.298528  
2002-04-25 12:33:01 51°11.258 2°45.013 11.797114 3.633727 31.300147  
2002-04-25 12:33:06 51°11.259 2°44.986 11.809617 3.634028 31.303685  
2002-04-25 12:33:11 51°11.26 2°44.959 11.809617 3.634028 31.303685  
2002-04-25 12:33:16 51°11.261 2°44.932 11.822847 3.63503 31.311957  
2002-04-25 12:33:21 51°11.262 2°44.905 11.829918 3.635431 31.312493  
2002-04-25 12:33:26 51°11.264 2°44.878 11.760366 3.636733 31.321661  
2002-04-25 12:33:31 51°11.265 2°44.85 11.732416 3.637234 31.322495  
2002-04-25 12:33:36 51°11.266 2°44.823 11.723736 3.636733 31.309121  
2002-04-25 12:33:41 51°11.268 2°44.795 11.723736 3.636733 31.309121  
2002-04-25 12:33:46 51°11.27 2°44.768 11.709343 3.636633 31.300248  
2002-04-25 12:33:51 51°11.271 2°44.74 11.709343 3.636733 31.29132  
2002-04-25 12:33:56 51°11.272 2°44.713 11.712953 3.636632 31.283116  
2002-04-25 12:34:01 51°11.273 2°44.685 11.725381 3.638236 31.30108  
2002-04-25 12:34:06 51°11.275 2°44.658 11.734426 3.639038 31.324573  
2002-04-25 12:34:11 51°11.276 2°44.63 11.734426 3.639038 31.324573  
2002-04-25 12:34:16 51°11.278 2°44.603 11.744109 3.638837 31.335859  
2002-04-25 12:34:21 51°11.278 2°44.575 11.741369 3.638838 31.349073  
2002-04-25 12:34:26 51°11.28 2°44.548 11.741917 3.638337 31.355516  
2002-04-25 12:34:31 51°11.282 2°44.52 11.73205 3.637435 31.354815  
2002-04-25 12:34:36 51°11.283 2°44.492 11.717294 3.638237 31.364481  
2002-04-25 12:34:41 51°11.285 2°44.465 11.710074 3.638838 31.368256  
2002-04-25 12:34:46 51°11.287 2°44.437 11.710074 3.638838 31.368256  
2002-04-25 12:34:51 51°11.289 2°44.41 11.711719 3.639639 31.372626  
2002-04-25 12:34:56 51°11.291 2°44.382 11.717522 3.640842 31.378188  
2002-04-25 12:35:01 51°11.292 2°44.355 11.718436 3.641243 31.37938  
2002-04-25 12:35:06 51°11.293 2°44.327 11.724467 3.641744 31.382855  
2002-04-25 12:35:11 51°11.295 2°44.3 11.720766 3.641844 31.385801  
2002-04-25 12:35:16 51°11.298 2°44.272 11.720766 3.641844 31.385801  
2002-04-25 12:35:21 51°11.302 2°44.245 11.711856 3.641543 31.390204  
2002-04-25 12:35:26 51°11.307 2°44.219 11.710074 3.641142 31.391  
2002-04-25 12:35:31 51°11.311 2°44.192 11.716289 3.640742 31.389147  
2002-04-25 12:35:36 51°11.317 2°44.166 11.717065 3.641343 31.395571  
2002-04-25 12:35:41 51°11.323 2°44.14 11.715283 3.642044 31.400967  
2002-04-25 12:35:46 51°11.328 2°44.114 11.715283 3.642044 31.400967  
2002-04-25 12:35:51 51°11.332 2°44.088 11.711308 3.644549 31.423648  
2002-04-25 12:35:56 51°11.337 2°44.061 11.710211 3.646654 31.445143  
2002-04-25 12:36:01 51°11.342 2°44.035 11.705596 3.648157 31.461542  
2002-04-25 12:36:06 51°11.348 2°44.009 11.695678 3.648958 31.469891  
2002-04-25 12:36:11 51°11.354 2°43.982 11.68448 3.650762 31.487182  
2002-04-25 12:36:16 51°11.359 2°43.956 11.68448 3.650762 31.487182  
2002-04-25 12:36:21 51°11.364 2°43.93 11.678902 3.651965 31.499376  
2002-04-25 12:36:26 51°11.37 2°43.904 11.678399 3.654069 31.520218  
2002-04-25 12:36:31 51°11.376 2°43.878 11.676159 3.656474 31.544612  
2002-04-25 12:36:36 51°11.382 2°43.852 11.675793 3.658779 31.568716  
2002-04-25 12:36:41 51°11.389 2°43.826 11.717065 3.660482 31.58639  
2002-04-25 12:36:46 51°11.395 2°43.8 11.717065 3.660482 31.58639  
2002-04-25 12:36:51 51°11.401 2°43.774 11.679497 3.662987 31.617766  
2002-04-25 12:36:56 51°11.407 2°43.748 11.676388 3.665092 31.64197  
2002-04-25 12:37:01 51°11.412 2°43.721 11.683748 3.666495 31.660786  
2002-04-25 12:37:06 51°11.418 2°43.695 11.686994 3.667898 31.676263  
2002-04-25 12:37:11 51°11.423 2°43.668 11.686994 3.667898 31.676263  
2002-04-25 12:37:16 51°11.43 2°43.642 11.689919 3.668499 31.686053  
2002-04-25 12:37:21 51°11.435 2°43.616 11.68544 3.669501 31.697685  
2002-04-25 12:37:26 51°11.441 2°43.59 11.678856 3.670503 31.70798  
2002-04-25 12:37:31 51°11.446 2°43.563 11.678994 3.671004 31.713463  
2002-04-25 12:37:36 51°11.451 2°43.537 11.67305 3.671706 31.720871  
2002-04-25 12:37:40 51°11.455 2°43.516 11.67305 3.671706 31.720871  
2002-04-25 12:37:46 51°11.461 2°43.484 11.677119 3.672708 31.728486  
2002-04-25 12:37:51 51°11.466 2°43.457 11.68288 3.673509 31.734175  
2002-04-25 12:37:56 51°11.472 2°43.431 11.673873 3.674411 31.741496  
2002-04-25 12:38:01 51°11.478 2°43.405 11.666603 3.675514 31.752085  
2002-04-25 12:38:06 51°11.484 2°43.379 11.667929 3.675914 31.757277  
2002-04-25 12:38:11 51°11.49 2°43.353 11.667929 3.675914 31.757277  
2002-04-25 12:38:16 51°11.496 2°43.327 11.667106 3.676516 31.764395  
2002-04-25 12:38:21 51°11.502 2°43.3 11.665506 3.677317 31.774783  
2002-04-25 12:38:26 51°11.506 2°43.274 11.663494 3.678319 31.78374  
2002-04-25 12:38:31 51°11.509 2°43.247 11.660613 3.679823 31.798855  
2002-04-25 12:38:36 51°11.511 2°43.219 11.661482 3.680123 31.802416  
2002-04-25 12:38:41 51°11.514 2°43.192 11.661756 3.680524 31.808957  
2002-04-25 12:38:46 51°11.516 2°43.165 11.661756 3.680524 31.808957  
2002-04-25 12:38:51 51°11.519 2°43.138 11.659149 3.681125 31.816753  
2002-04-25 12:38:55 51°11.522 2°43.116 11.661116 3.681626 31.822914  
2002-04-25 12:39:01 51°11.529 2°43.085 11.657 3.681727 31.827241  
2002-04-25 12:39:05 51°11.534 2°43.065 11.655399 3.680725 31.818954  
2002-04-25 12:39:11 51°11.546 2°43.037 11.654576 3.682228 31.834077  
2002-04-25 12:39:16 51°11.557 2°43.017 11.654576 3.682228 31.834077  
2002-04-25 12:39:20 51°11.568 2°43.003 11.654805 3.680725 31.820972  
2002-04-25 12:39:25 51°11.582 2°42.987 11.652289 3.682428 31.836677  
2002-04-25 12:39:31 51°11.599 2°42.967 11.659424 3.682929 31.841494  
2002-04-25 12:39:35 51°11.61 2°42.953 11.66418 3.683731 31.849202  
2002-04-25 12:39:41 51°11.626 2°42.932 11.663311 3.684332 31.852963  
2002-04-25 12:39:46 51°11.639 2°42.912 11.663311 3.684332 31.852963  
2002-04-25 12:39:51 51°11.652 2°42.892 11.664591 3.684833 31.859127  
2002-04-25 12:39:56 51°11.664 2°42.872 11.702991 3.685535 31.866546  
2002-04-25 12:40:01 51°11.675 2°42.851 11.667838 3.685735 31.869147  
2002-04-25 12:40:05 51°11.683 2°42.832 11.667838 3.686236 31.875313  
2002-04-25 12:40:11 51°11.693 2°42.804 11.667838 3.686236 31.875313  
2002-04-25 12:40:16 51°11.7 2°42.779 11.6661 3.686537 31.878204  
2002-04-25 12:40:20 51°11.705 2°42.76 11.667929 3.686938 31.881384  
2002-04-25 12:40:26 51°11.711 2°42.733 11.66706 3.68794 31.890347  
2002-04-25 12:40:31 51°11.716 2°42.713 11.668112 3.688741 31.898057  
2002-04-25 12:40:36 51°11.72 2°42.695 11.668432 3.689242 31.902875  
2002-04-25 12:40:40 51°11.722 2°42.681 11.668432 3.689242 31.902875  
2002-04-25 12:40:46 51°11.726 2°42.662 11.668203 3.689443 31.904803  
2002-04-25 12:40:51 51°11.728 2°42.648 11.668706 3.689744 31.90702  
2002-04-25 12:40:56 51°11.729 2°42.634 11.666877 3.690144 31.9102  
2002-04-25 12:41:00 51°11.73 2°42.624 11.665871 3.690746 31.915308  
2002-04-25 12:41:06 51°11.731 2°42.611 11.666923 3.691247 31.918777  
2002-04-25 12:41:11 51°11.732 2°42.602 11.666923 3.691247 31.918777  
2002-04-25 12:41:16 51°11.733 2°42.595 11.669621 3.690645 31.913669  
2002-04-25 12:41:21 51°11.733 2°42.589 11.667746 3.691848 31.925234  
2002-04-25 12:41:26 51°11.734 2°42.586 11.666146 3.691948 31.926198  
2002-04-25 12:41:31 51°11.734 2°42.584 11.665277 3.692449 31.931017  
2002-04-25 12:41:36 51°11.735 2°42.584 11.666512 3.69285 31.934872  
2002-04-25 12:41:41 51°11.736 2°42.585 11.666512 3.69285 31.934872  
2002-04-25 12:41:45 51°11.736 2°42.587 11.667609 3.69285 31.934197  
2002-04-25 12:41:51 51°11.738 2°42.589 11.666649 3.693251 31.938728  
2002-04-25 12:41:56 51°11.739 2°42.591 11.665643 3.693451 31.93998  
2002-04-25 12:42:01 51°11.739 2°42.593 11.6645 3.693752 31.942196  
2002-04-25 12:42:06 51°11.74 2°42.595 11.662396 3.69305 31.9368  
2002-04-25 12:42:11 51°11.741 2°42.597 11.661482 3.693451 31.940655  
2002-04-25 12:42:16 51°11.742 2°42.599 11.661482 3.693451 31.940655  
2002-04-25 12:42:20 51°11.742 2°42.601 11.659149 3.692048 31.927837  
2002-04-25 12:42:26 51°11.743 2°42.604 11.656268 3.693752 31.944222  
2002-04-25 12:42:31 51°11.744 2°42.606 11.652152 3.693952 31.944799  
2002-04-25 12:42:37 51°11.745 2°42.609 11.647395 3.693652 31.943258  
2002-04-25 12:42:42 51°11.746 2°42.611 11.646663 3.693652 31.944609  
2002-04-25 12:42:47 51°11.746 2°42.613 11.646663 3.693652 31.944609  
2002-04-25 12:42:51 51°11.747 2°42.615 11.645886 3.693852 31.947212  
2002-04-25 12:42:57 51°11.748 2°42.617 11.646572 3.69275 31.937285  
2002-04-25 12:43:01 51°11.748 2°42.619 11.646069 3.692549 31.936707  
2002-04-25 12:43:07 51°11.749 2°42.622 11.645428 3.692048 31.934589  
2002-04-25 12:43:12 51°11.749 2°42.624 11.644193 3.693151 31.94722  
2002-04-25 12:43:16 51°11.75 2°42.626 11.644193 3.693151 31.94722  
2002-04-25 12:43:21 51°11.751 2°42.628 11.643462 3.69265 31.945102  
2002-04-25 12:43:26 51°11.751 2°42.63 11.680959 3.69275 31.947418  
2002-04-25 12:43:31 51°11.751 2°42.632 11.641952 3.691648 31.938839  
2002-04-25 12:43:36 51°11.752 2°42.634 11.641586 3.692149 31.945012  
2002-04-25 12:43:41 51°11.752 2°42.636 11.641449 3.692249 31.945976  
2002-04-25 12:43:47 51°11.753 2°42.639 11.641449 3.692249 31.945976  
2002-04-25 12:43:52 51°11.754 2°42.641 11.678354 3.692149 31.945687  
2002-04-25 12:43:56 51°11.754 2°42.643 11.641449 3.692049 31.945399  
2002-04-25 12:44:01 51°11.754 2°42.645 11.640808 3.692149 31.946363  
2002-04-25 12:44:06 51°11.755 2°42.647 11.640443 3.691948 31.94511  
2002-04-25 12:44:11 51°11.755 2°42.65 11.641083 3.690946 31.936143  
2002-04-25 12:44:16 51°11.756 2°42.652 11.641083 3.690946 31.936143  
2002-04-25 12:44:21 51°11.756 2°42.654 11.641449 3.691347 31.940676  
2002-04-25 12:44:27 51°11.756 2°42.657 11.643187 3.691948 31.945786  
2002-04-25 12:44:31 51°11.757 2°42.659 11.642455 3.691948 31.947138  
2002-04-25 12:44:36 51°11.757 2°42.661 11.642913 3.690545 31.933637  
2002-04-25 12:44:41 51°11.757 2°42.663 11.64401 3.690646 31.935277  
2002-04-25 12:44:46 51°11.758 2°42.666 11.64401 3.690646 31.935277  
2002-04-25 12:44:52 51°11.758 2°42.669 11.64401 3.691848 31.946174  
2002-04-25 12:44:57 51°11.758 2°42.671 11.64369 3.691748 31.945885  
2002-04-25 12:45:01 51°11.759 2°42.673 11.644285 3.690445 31.933348  
2002-04-25 12:45:06 51°11.759 2°42.675 11.645383 3.691447 31.94164  
2002-04-25 12:45:11 51°11.76 2°42.678 11.645383 3.691447 31.94164  
2002-04-25 12:45:15 51°11.76 2°42.679 11.64863 3.691848 31.944822  
2002-04-25 12:45:21 51°11.76 2°42.683 11.652015 3.690846 31.934503  
2002-04-25 12:45:26 51°11.76 2°42.685 11.654256 3.690545 31.932285  
2002-04-25 12:45:31 51°11.76 2°42.687 11.656908 3.691748 31.943858  
2002-04-25 12:45:36 51°11.761 2°42.69 11.659972 3.691748 31.943858  
2002-04-25 12:45:40 51°11.761 2°42.692 11.662625 3.691748 31.943858  
2002-04-25 12:45:46 51°11.761 2°42.694 11.662625 3.691748 31.943858  
2002-04-25 12:45:51 51°11.761 2°42.696 11.665917 3.690946 31.935467  
2002-04-25 12:45:56 51°11.762 2°42.699 11.666969 3.691848 31.942794  
2002-04-25 12:46:01 51°11.762 2°42.701 11.668158 3.690445 31.927943  
2002-04-25 12:46:06 51°11.762 2°42.703 11.668478 3.691147 31.932666  
2002-04-25 12:46:11 51°11.763 2°42.706 11.672227 3.69255 31.944138  
2002-04-25 12:46:16 51°11.763 2°42.708 11.672227 3.69255 31.944138  
2002-04-25 12:46:21 51°11.763 2°42.71 11.673507 3.69265 31.9424  
2002-04-25 12:46:25 51°11.763 2°42.712 11.674559 3.692449 31.938445  
2002-04-25 12:46:31 51°11.763 2°42.715 11.675565 3.69305 31.941527  
2002-04-25 12:46:35 51°11.764 2°42.717 11.675885 3.692449 31.934393  
2002-04-25 12:46:41 51°11.764 2°42.72 11.675519 3.693251 31.940754  
2002-04-25 12:46:45 51°11.764 2°42.722 11.675519 3.693251 31.940754  
2002-04-25 12:46:51 51°11.764 2°42.725 11.677622 3.693752 31.943547  
2002-04-25 12:46:56 51°11.764 2°42.727 11.680228 3.692349 31.928703  
2002-04-25 12:47:01 51°11.765 2°42.729 11.679999 3.69275 31.931208  
2002-04-25 12:47:06 51°11.765 2°42.732 11.678856 3.69305 31.932074  
2002-04-25 12:47:11 51°11.765 2°42.734 11.677485 3.69285 31.930147  
2002-04-25 12:47:16 51°11.765 2°42.737 11.677485 3.69285 31.930147  
2002-04-25 12:47:21 51°11.765 2°42.739 11.675839 3.693151 31.932363  
2002-04-25 12:47:26 51°11.765 2°42.742 11.712725 3.69305 31.931399  
2002-04-25 12:47:31 51°11.765 2°42.744 11.675885 3.694253 31.940938  
2002-04-25 12:47:36 51°11.765 2°42.746 11.673782 3.69295 31.927736  
2002-04-25 12:47:41 51°11.766 2°42.749 11.673782 3.69295 31.927736  
2002-04-25 12:47:46 51°11.766 2°42.751 11.673416 3.694153 31.937949  
2002-04-25 12:47:51 51°11.766 2°42.753 11.672273 3.69305 31.926675  
2002-04-25 12:47:56 51°11.766 2°42.756 11.671907 3.694754 31.94373  
2002-04-25 12:48:01 51°11.766 2°42.758 11.672044 3.694754 31.944405  
2002-04-25 12:48:06 51°11.766 2°42.76 11.671267 3.694353 31.940551  
2002-04-25 12:48:11 51°11.766 2°42.762 11.709617 3.694654 31.944792  
2002-04-25 12:48:15 51°11.767 2°42.764 11.709617 3.694654 31.944792  
2002-04-25 12:48:20 51°11.767 2°42.766 11.671358 3.693451 31.933228  
2002-04-25 12:48:26 51°11.767 2°42.769 11.671496 3.694353 31.941901  
2002-04-25 12:48:31 51°11.767 2°42.771 11.671358 3.694353 31.943252  
2002-04-25 12:48:36 51°11.768 2°42.773 11.672227 3.694353 31.943252  
2002-04-25 12:48:41 51°11.768 2°42.775 11.672227 3.694353 31.943252  
2002-04-25 12:48:45 51°11.768 2°42.777 11.747991 3.69275 31.929183  
2002-04-25 12:48:51 51°11.769 2°42.779 11.672959 3.694153 31.941324  
2002-04-25 12:48:56 51°11.769 2°42.781 11.673187 3.694052 31.940361  
2002-04-25 12:49:01 51°11.769 2°42.783 11.674879 3.694153 31.942675  
2002-04-25 12:49:06 51°11.769 2°42.786 11.678034 3.693551 31.936892  
2002-04-25 12:49:10 51°11.769 2°42.787 11.678034 3.693551 31.936892  
2002-04-25 12:49:15 51°11.77 2°42.789 11.714826 3.694253 31.942288  
2002-04-25 12:49:21 51°11.77 2°42.792 11.676662 3.692449 31.925617  
2002-04-25 12:49:26 51°11.77 2°42.794 11.674422 3.693752 31.93882  
2002-04-25 12:49:31 51°11.77 2°42.796 11.710988 3.692249 31.92369  
2002-04-25 12:49:36 51°11.77 2°42.798 11.673462 3.693952 31.939397  
2002-04-25 12:49:41 51°11.771 2°42.8 11.67401 3.691848 31.917811  
2002-04-25 12:49:45 51°11.771 2°42.801 11.67401 3.691848 31.917811  
2002-04-25 12:49:50 51°11.771 2°42.803 11.672867 3.694052 31.938335  
2002-04-25 12:49:56 51°11.772 2°42.805 11.672136 3.692249 31.919641  
2002-04-25 12:50:01 51°11.772 2°42.807 11.674422 3.69315 31.928988  
2002-04-25 12:50:06 51°11.772 2°42.809 11.67465 3.694153 31.939974  
2002-04-25 12:50:11 51°11.772 2°42.811 11.671541 3.693952 31.938722  
2002-04-25 12:50:16 51°11.772 2°42.812 11.671541 3.693952 31.938722  
2002-04-25 12:50:21 51°11.773 2°42.814 11.670535 3.694153 31.939974  
2002-04-25 12:50:26 51°11.773 2°42.816 11.67113 3.69295 31.92841  
2002-04-25 12:50:31 51°11.773 2°42.819 11.673096 3.693551 31.935542  
2002-04-25 12:50:36 51°11.773 2°42.82 11.671816 3.694052 31.939685  
2002-04-25 12:50:41 51°11.774 2°42.822 11.708383 3.693752 31.936119  
2002-04-25 12:50:46 51°11.774 2°42.824 11.708383 3.693752 31.936119  
2002-04-25 12:50:51 51°11.774 2°42.826 11.670398 3.69305 31.929374  
2002-04-25 12:50:56 51°11.775 2°42.828 11.669712 3.693551 31.935542  
2002-04-25 12:51:00 51°11.775 2°42.829 11.670261 3.693351 31.934965  
2002-04-25 12:51:06 51°11.775 2°42.832 11.709435 3.693852 31.939784  
2002-04-25 12:51:11 51°11.775 2°42.834 11.709435 3.693852 31.939784  
2002-04-25 12:51:16 51°11.776 2°42.836 11.673233 3.693652 31.937181  
2002-04-25 12:51:21 51°11.776 2°42.837 11.674102 3.693752 31.938145  
2002-04-25 12:51:25 51°11.776 2°42.839 11.678034 3.693451 31.936604  
2002-04-25 12:51:31 51°11.777 2°42.841 11.679954 3.693752 31.93882  
2002-04-25 12:51:36 51°11.777 2°42.843 11.677896 3.693752 31.939495  
2002-04-25 12:51:40 51°11.777 2°42.844 11.677896 3.693752 31.939495  
2002-04-25 12:51:46 51°11.777 2°42.846 11.676251 3.693752 31.93882  
2002-04-25 12:51:51 51°11.778 2°42.849 11.672867 3.693852 31.939784  
2002-04-25 12:51:56 51°11.778 2°42.85 11.672776 3.69285 31.930147  
2002-04-25 12:52:01 51°11.778 2°42.852 11.675793 3.693251 31.932651  
2002-04-25 12:52:05 51°11.778 2°42.854 11.676753 3.693852 31.937083  
2002-04-25 12:52:11 51°11.779 2°42.856 11.675885 3.693952 31.936697  
2002-04-25 12:52:15 51°11.779 2°42.857 11.675885 3.693952 31.936697  
2002-04-25 12:52:21 51°11.779 2°42.859 11.67337 3.693852 31.935733  
2002-04-25 12:52:26 51°11.779 2°42.861 11.711034 3.694052 31.93766  
2002-04-25 12:52:31 51°11.78 2°42.863 11.674239 3.694052 31.93901  
2002-04-25 12:52:36 51°11.78 2°42.865 11.674742 3.692549 31.925231  
2002-04-25 12:52:40 51°11.78 2°42.866 11.674742 3.692549 31.925231  
2002-04-25 12:52:45 51°11.78 2°42.868 11.67497 3.693551 31.934867  
2002-04-25 12:52:51 51°11.781 2°42.87 11.676022 3.693952 31.938047  
2002-04-25 12:52:56 51°11.781 2°42.872 11.676479 3.693752 31.936794  
2002-04-25 12:53:01 51°11.781 2°42.874 11.675016 3.692449 31.923593  
2002-04-25 12:53:05 51°11.781 2°42.876 11.674147 3.693652 31.935156  
2002-04-25 12:53:11 51°11.782 2°42.878 11.672501 3.693551 31.933517  
2002-04-25 12:53:16 51°11.782 2°42.879 11.672501 3.693551 31.933517  
2002-04-25 12:53:21 51°11.782 2°42.881 11.671678 3.693852 31.937758  
2002-04-25 12:53:25 51°11.782 2°42.882 11.67113 3.693752 31.935444  
2002-04-25 12:53:31 51°11.783 2°42.885 11.671084 3.693752 31.935444  
2002-04-25 12:53:36 51°11.783 2°42.886 11.671541 3.693551 31.934192  
2002-04-25 12:53:41 51°11.783 2°42.888 11.673233 3.693752 31.935444  
2002-04-25 12:53:46 51°11.783 2°42.89 11.673233 3.693752 31.935444  
2002-04-25 12:53:51 51°11.784 2°42.892 11.672776 3.693752 31.935444  
2002-04-25 12:53:56 51°11.784 2°42.893 11.671313 3.693551 31.934867  
2002-04-25 12:54:01 51°11.784 2°42.895 11.707927 3.693351 31.93294  
2002-04-25 12:54:06 51°11.784 2°42.897 11.669118 3.693551 31.936892  
2002-04-25 12:54:11 51°11.784 2°42.899 11.669987 3.692449 31.925617  
2002-04-25 12:54:16 51°11.785 2°42.9 11.669987 3.692449 31.925617  
2002-04-25 12:54:21 51°11.785 2°42.902 11.671633 3.693451 31.935254  
2002-04-25 12:54:26 51°11.785 2°42.904 11.671038 3.692249 31.923015  
2002-04-25 12:54:31 51°11.785 2°42.906 11.670627 3.692449 31.924942  
2002-04-25 12:54:36 51°11.786 2°42.908 11.670078 3.692449 31.925617  
2002-04-25 12:54:41 51°11.786 2°42.909 11.705824 3.693451 31.935254  
2002-04-25 12:54:46 51°11.786 2°42.911 11.705824 3.693451 31.935254  
2002-04-25 12:54:51 51°11.787 2°42.913 11.667518 3.693551 31.936892  
2002-04-25 12:54:56 51°11.787 2°42.915 11.668935 3.693251 31.934001  
2002-04-25 12:55:01 51°11.787 2°42.916 11.670855 3.693451 31.935254  
2002-04-25 12:55:06 51°11.787 2°42.918 11.67209 3.693351 31.93429  
2002-04-25 12:55:11 51°11.787 2°42.92 11.67209 3.693351 31.93429  
2002-04-25 12:55:16 51°11.788 2°42.922 11.673919 3.693251 31.934001  
2002-04-25 12:55:21 51°11.788 2°42.924 11.675656 3.693351 31.934965  
2002-04-25 12:55:26 51°11.788 2°42.926 11.675793 3.693451 31.936604  
2002-04-25 12:55:31 51°11.788 2°42.927 11.676159 3.693251 31.935351  
2002-04-25 12:55:36 51°11.789 2°42.929 11.676616 3.693251 31.934676  
2002-04-25 12:55:41 51°11.789 2°42.931 11.675519 3.693151 31.933713  
2002-04-25 12:55:46 51°11.789 2°42.933 11.675519 3.693151 31.933713  
2002-04-25 12:55:51 51°11.789 2°42.934 11.672867 3.693151 31.933038  
2002-04-25 12:55:56 51°11.79 2°42.936 11.672319 3.693351 31.933615  
2002-04-25 12:56:01 51°11.79 2°42.938 11.671358 3.693351 31.93294  
2002-04-25 12:56:06 51°11.79 2°42.939 11.672364 3.693351 31.93294  
2002-04-25 12:56:11 51°11.79 2°42.941 11.672364 3.693351 31.93294  
2002-04-25 12:56:16 51°11.79 2°42.943 11.673233 3.693351 31.93159  
2002-04-25 12:56:21 51°11.791 2°42.945 11.67241 3.693451 31.932554  
2002-04-25 12:56:26 51°11.791 2°42.947 11.672639 3.693551 31.934867  
2002-04-25 12:56:31 51°11.791 2°42.948 11.674833 3.693451 31.933228  
2002-04-25 12:56:36 51°11.792 2°42.95 11.675108 3.692349 31.923979  
2002-04-25 12:56:41 51°11.792 2°42.951 11.675656 3.693251 31.932651  
2002-04-25 12:56:46 51°11.793 2°42.953 11.675656 3.693251 31.932651  
2002-04-25 12:56:51 51°11.793 2°42.955 11.67561 3.69295 31.92976  
2002-04-25 12:56:56 51°11.793 2°42.957 11.67529 3.69285 31.928797  
2002-04-25 12:57:01 51°11.793 2°42.958 11.675793 3.69295 31.92976  
2002-04-25 12:57:06 51°11.793 2°42.96 11.676388 3.69305 31.930724  
2002-04-25 12:57:11 51°11.794 2°42.961 11.676662 3.693251 31.931976  
2002-04-25 12:57:16 51°11.794 2°42.963 11.676662 3.693251 31.931976  
2002-04-25 12:57:21 51°11.794 2°42.963 11.676479 3.691848 31.918486  
2002-04-25 12:57:26 51°11.794 2°42.965 11.675793 3.69305 31.930049  
2002-04-25 12:57:31 51°11.794 2°42.965 11.677394 3.69305 31.930049  
2002-04-25 12:57:36 51°11.794 2°42.966 11.679085 3.69305 31.929374  
2002-04-25 12:57:40 51°11.794 2°42.966 11.681371 3.692048 31.921088  
2002-04-25 12:57:46 51°11.794 2°42.967 11.681371 3.692048 31.921088  
2002-04-25 12:57:51 51°11.793 2°42.967 11.687817 3.692048 31.919738  
2002-04-25 12:57:56 51°11.793 2°42.968 11.687725 3.69285 31.927447  
2002-04-25 12:58:01 51°11.793 2°42.968 11.726249 3.69295 31.927061  
2002-04-25 12:58:06 51°11.793 2°42.967 11.688319 3.691447 31.913282  
2002-04-25 12:58:11 51°11.792 2°42.966 11.684205 3.691848 31.917136  
2002-04-25 12:58:16 51°11.791 2°42.965 11.684205 3.691848 31.917136  
2002-04-25 12:58:21 51°11.79 2°42.963 11.68448 3.692649 31.92417  
2002-04-25 12:58:26 51°11.789 2°42.96 11.681874 3.69285 31.924073  
2002-04-25 12:58:31 51°11.788 2°42.957 11.681828 3.69305 31.923976  
2002-04-25 12:58:36 51°11.787 2°42.954 11.681508 3.693451 31.92648  
2002-04-25 12:58:41 51°11.786 2°42.95 11.681508 3.693451 31.92648  
2002-04-25 12:58:46 51°11.785 2°42.946 11.681828 3.693351 31.924842  
2002-04-25 12:58:51 51°11.784 2°42.942 11.682148 3.69305 31.921952  
2002-04-25 12:58:56 51°11.784 2°42.937 11.679039 3.692449 31.916846  
2002-04-25 12:59:01 51°11.783 2°42.932 11.676753 3.691547 31.90885  
2002-04-25 12:59:06 51°11.782 2°42.926 11.676342 3.691347 31.906249  
2002-04-25 12:59:11 51°11.782 2°42.92 11.680457 3.691246 31.90596  
2002-04-25 12:59:16 51°11.782 2°42.914 11.680457 3.691246 31.90596  
2002-04-25 12:59:21 51°11.782 2°42.908 11.684114 3.692048 31.914342  
2002-04-25 12:59:26 51°11.782 2°42.901 11.68192 3.69315 31.924939  
2002-04-25 12:59:31 51°11.782 2°42.894 11.678491 3.69315 31.925614  
2002-04-25 12:59:36 51°11.782 2°42.887 11.677165 3.69295 31.924362  
2002-04-25 12:59:41 51°11.783 2°42.88 11.677165 3.69295 31.924362  
2002-04-25 12:59:46 51°11.784 2°42.873 11.676891 3.692549 31.921857  
2002-04-25 12:59:51 51°11.785 2°42.865 11.67561 3.691748 31.913475  
2002-04-25 12:59:56 51°11.786 2°42.858 11.679131 3.692649 31.922146  
2002-04-25 13:00:01 51°11.787 2°42.85 11.679771 3.691647 31.911837  
2002-04-25 13:00:06 51°11.789 2°42.843 11.681005 3.69285 31.922724  
2002-04-25 13:00:11 51°11.791 2°42.835 11.677988 3.691347 31.908947  
2002-04-25 13:00:16 51°11.793 2°42.828 11.677988 3.691347 31.908947  
2002-04-25 13:00:21 51°11.796 2°42.821 11.680228 3.690745 31.904515  
2002-04-25 13:00:26 51°11.799 2°42.814 11.681462 3.691347 31.91097  
2002-04-25 13:00:31 51°11.801 2°42.806 11.719396 3.692349 31.921279  
2002-04-25 13:00:36 51°11.804 2°42.799 11.679451 3.690445 31.902299  
2002-04-25 13:00:41 51°11.808 2°42.792 11.751964 3.692249 31.919641  
2002-04-25 13:00:46 51°11.811 2°42.785 11.751964 3.692249 31.919641  
2002-04-25 13:00:51 51°11.814 2°42.778 11.678034 3.690545 31.902588  
2002-04-25 13:00:56 51°11.817 2°42.771 11.676159 3.692349 31.920605  
2002-04-25 13:01:01 51°11.821 2°42.763 11.675153 3.692349 31.920605  
2002-04-25 13:01:06 51°11.824 2°42.756 11.675153 3.692349 31.918581  
2002-04-25 13:01:11 51°11.828 2°42.749 11.67273 3.692449 31.920894  
2002-04-25 13:01:16 51°11.832 2°42.742 11.67273 3.692449 31.920894  
2002-04-25 13:01:21 51°11.835 2°42.735 11.670124 3.692649 31.922821  
2002-04-25 13:01:25 51°11.839 2°42.73 11.668615 3.692549 31.922532  
2002-04-25 13:01:31 51°11.844 2°42.722 11.66738 3.692549 31.923207  
2002-04-25 13:01:36 51°11.848 2°42.716 11.707424 3.691247 31.910681  
2002-04-25 13:01:40 51°11.851 2°42.711 11.667929 3.69275 31.925808  
2002-04-25 13:01:46 51°11.857 2°42.703 11.667929 3.69275 31.925808  
2002-04-25 13:01:51 51°11.861 2°42.697 11.702305 3.692349 31.923304  
2002-04-25 13:01:56 51°11.864 2°42.691 11.66482 3.690345 31.905382  
2002-04-25 13:02:01 51°11.868 2°42.685 11.665231 3.689743 31.900949  
2002-04-25 13:02:06 51°11.871 2°42.679 11.668021 3.690044 31.905189  
2002-04-25 13:02:11 51°11.875 2°42.673 11.668249 3.690244 31.90779  
2002-04-25 13:02:16 51°11.879 2°42.667 11.668249 3.690244 31.90779  
2002-04-25 13:02:21 51°11.882 2°42.661 11.66514 3.690345 31.909429  
2002-04-25 13:02:26 51°11.886 2°42.655 11.665003 3.690545 31.912031  
2002-04-25 13:02:31 51°11.89 2°42.649 11.664362 3.69305 31.9368  
2002-04-25 13:02:36 51°11.894 2°42.644 11.663768 3.693351 31.940367  
2002-04-25 13:02:41 51°11.897 2°42.638 11.66075 3.693351 31.941042  
2002-04-25 13:02:46 51°11.9 2°42.633 11.66075 3.693351 31.941042  
2002-04-25 13:02:51 51°11.904 2°42.627 11.659744 3.693551 31.942294  
2002-04-25 13:02:56 51°11.906 2°42.622 11.658052 3.693752 31.944222  
2002-04-25 13:03:01 51°11.909 2°42.617 11.657777 3.693752 31.944898  
2002-04-25 13:03:06 51°11.911 2°42.612 11.66011 3.693852 31.945861  
2002-04-25 13:03:11 51°11.913 2°42.607 11.66011 3.693852 31.945861  
2002-04-25 13:03:16 51°11.914 2°42.602 11.659332 3.693852 31.945861  
2002-04-25 13:03:21 51°11.916 2°42.597 11.660658 3.693852 31.947212  
2002-04-25 13:03:26 51°11.916 2°42.593 11.661161 3.694253 31.951068  
2002-04-25 13:03:31 51°11.917 2°42.589 11.653295 3.694253 31.95242  
2002-04-25 13:03:36 51°11.918 2°42.585 11.650414 3.694353 31.955411  
2002-04-25 13:03:41 51°11.918 2°42.581 11.647304 3.694453 31.956375  
2002-04-25 13:03:46 51°11.918 2°42.577 11.647304 3.694453 31.956375  
2002-04-25 13:03:51 51°11.917 2°42.574 11.643462 3.694554 31.956663  
2002-04-25 13:03:56 51°11.917 2°42.57 11.64616 3.694854 31.960231  
2002-04-25 13:04:01 51°11.916 2°42.567 11.647441 3.695155 31.963124  
2002-04-25 13:04:06 51°11.915 2°42.563 11.646435 3.694955 31.961871  
2002-04-25 13:04:11 51°11.914 2°42.559 11.646892 3.695456 31.968044  
2002-04-25 13:04:16 51°11.912 2°42.556 11.646892 3.695456 31.968044  
2002-04-25 13:04:20 51°11.91 2°42.553 11.686354 3.695355 31.969784  
2002-04-25 13:04:26 51°11.908 2°42.549 11.646526 3.695556 31.973742  
2002-04-25 13:04:31 51°11.906 2°42.545 11.646801 3.695656 31.975383  
2002-04-25 13:04:36 51°11.903 2°42.542 11.64616 3.695556 31.976447  
2002-04-25 13:04:41 51°11.9 2°42.539 11.644788 3.695656 31.977412  
2002-04-25 13:04:46 51°11.897 2°42.535 11.644788 3.695656 31.977412  
2002-04-25 13:04:51 51°11.894 2°42.533 11.643782 3.695756 31.979053  
2002-04-25 13:04:56 51°11.891 2°42.53 11.644193 3.695556 31.976447  
2002-04-25 13:05:01 51°11.887 2°42.527 11.643141 3.696057 31.980593  
2002-04-25 13:05:06 51°11.883 2°42.525 11.645017 3.696057 31.980593  
2002-04-25 13:05:11 51°11.88 2°42.523 11.683245 3.696358 31.98484  
2002-04-25 13:05:16 51°11.876 2°42.522 11.683245 3.696358 31.98484  
2002-04-25 13:05:21 51°11.872 2°42.521 11.642409 3.696358 31.98484  
2002-04-25 13:05:26 51°11.868 2°42.519 11.642638 3.696358 31.98484  
2002-04-25 13:05:31 51°11.864 2°42.518 11.642272 3.696458 31.987157  
2002-04-25 13:05:36 51°11.86 2°42.518 11.643141 3.696257 31.985228  
2002-04-25 13:05:41 51°11.856 2°42.517 11.642044 3.696257 31.985905  
2002-04-25 13:05:46 51°11.852 2°42.516 11.642044 3.696257 31.985905  
2002-04-25 13:05:51 51°11.847 2°42.515 11.64058 3.696057 31.983976  
2002-04-25 13:05:56 51°11.843 2°42.515 11.641906 3.696157 31.984264  
2002-04-25 13:06:00 51°11.84 2°42.514 11.642318 3.695857 31.982724  
2002-04-25 13:06:06 51°11.836 2°42.513 11.641266 3.696057 31.984653  
2002-04-25 13:06:11 51°11.832 2°42.511 11.641266 3.696057 31.984653  
2002-04-25 13:06:16 51°11.829 2°42.509 11.641906 3.695756 31.981759  
2002-04-25 13:06:21 51°11.825 2°42.507 11.647167 3.695656 31.981471  
2002-04-25 13:06:26 51°11.822 2°42.506 11.646892 3.695356 31.977901  
2002-04-25 13:06:31 51°11.819 2°42.504 11.64831 3.695356 31.978578  
2002-04-25 13:06:36 51°11.816 2°42.501 11.649636 3.694353 31.968256  
2002-04-25 13:06:40 51°11.813 2°42.5 11.687314 3.694854 31.973079  
2002-04-25 13:06:46 51°11.81 2°42.497 11.687314 3.694854 31.973079  
2002-04-25 13:06:51 51°11.807 2°42.495 11.647807 3.694754 31.972791  
2002-04-25 13:06:56 51°11.804 2°42.492 11.646938 3.694654 31.97115  
2002-04-25 13:07:01 51°11.801 2°42.49 11.651009 3.694454 31.969221  
2002-04-25 13:07:06 51°11.798 2°42.488 11.655125 3.694253 31.965939  
2002-04-25 13:07:11 51°11.795 2°42.486 11.655125 3.694253 31.965939  
2002-04-25 13:07:16 51°11.792 2°42.485 11.655628 3.694053 31.96401  
2002-04-25 13:07:21 51°11.789 2°42.483 11.655674 3.693852 31.960729  
2002-04-25 13:07:26 51°11.786 2°42.481 11.693804 3.693852 31.959377  
2002-04-25 13:07:31 51°11.783 2°42.479 11.6586 3.69295 31.951374  
2002-04-25 13:07:36 51°11.78 2°42.477 11.657732 3.693652 31.957448  
2002-04-25 13:07:41 51°11.777 2°42.476 11.65764 3.693251 31.952915  
2002-04-25 13:07:46 51°11.773 2°42.475 11.65764 3.693251 31.952915  
2002-04-25 13:07:51 51°11.77 2°42.474 11.658921 3.693251 31.951563  
2002-04-25 13:07:56 51°11.767 2°42.472 11.660567 3.69285 31.946355  
2002-04-25 13:08:01 51°11.764 2°42.471 11.659515 3.69295 31.945968  
2002-04-25 13:08:06 51°11.76 2°42.471 11.661482 3.69285 31.944328  
2002-04-25 13:08:11 51°11.757 2°42.47 11.662305 3.69275 31.942013  
2002-04-25 13:08:16 51°11.754 2°42.469 11.662305 3.69275 31.942013  
2002-04-25 13:08:20 51°11.751 2°42.469 11.701894 3.69275 31.941337